createdAt,value
2018-11-23T00:02:50.296Z,19.37
2018-11-23T00:05:56.129Z,17.80
2018-11-23T00:09:00.550Z,18.47
2018-11-23T00:12:04.793Z,17.83
2018-11-23T00:15:11.043Z,20.62
2018-11-23T00:18:14.710Z,19.23
2018-11-23T00:21:20.054Z,18.23
2018-11-23T00:24:24.594Z,18.83
2018-11-23T00:27:29.210Z,20.33
2018-11-23T00:30:34.050Z,21.07
2018-11-23T00:33:38.466Z,20.82
2018-11-23T00:36:42.491Z,20.80
2018-11-23T00:39:47.249Z,19.37
2018-11-23T00:42:52.515Z,19.10
2018-11-23T00:45:57.694Z,21.67
2018-11-23T00:49:02.234Z,20.90
2018-11-23T00:52:07.105Z,18.13
2018-11-23T00:55:12.462Z,18.70
2018-11-23T00:58:17.578Z,21.10
2018-11-23T01:01:22.382Z,20.47
2018-11-23T01:04:26.970Z,19.85
2018-11-23T01:07:32.667Z,18.40
2018-11-23T01:10:37.082Z,20.40
2018-11-23T01:13:41.447Z,19.60
2018-11-23T01:16:45.834Z,20.00
2018-11-23T01:19:50.257Z,22.20
2018-11-23T01:22:55.250Z,20.70
2018-11-23T01:25:59.806Z,19.87
2018-11-23T01:29:04.671Z,19.73
2018-11-23T01:32:10.323Z,19.17
2018-11-23T01:35:14.677Z,19.67
2018-11-23T01:38:19.368Z,22.87
2018-11-23T01:41:24.352Z,20.63
2018-11-23T01:44:30.442Z,21.03
2018-11-23T01:47:34.736Z,20.83
2018-11-23T01:50:38.694Z,21.80
2018-11-23T01:53:43.066Z,20.30
2018-11-23T01:56:47.838Z,21.03
2018-11-23T01:59:52.534Z,20.93
2018-11-23T02:02:57.046Z,18.10
2018-11-23T02:06:01.165Z,19.10
2018-11-23T02:09:06.940Z,22.30
2018-11-23T02:12:10.916Z,20.37
2018-11-23T02:15:16.717Z,19.67
2018-11-23T02:18:20.685Z,21.13
2018-11-23T02:21:24.623Z,20.20
2018-11-23T02:24:28.628Z,21.03
2018-11-23T02:27:32.641Z,19.43
2018-11-23T02:30:36.633Z,22.00
2018-11-23T02:33:41.319Z,20.10
2018-11-23T02:36:45.280Z,19.53
2018-11-23T02:39:49.209Z,20.33
2018-11-23T02:42:53.253Z,22.10
2018-11-23T02:45:57.324Z,19.93
2018-11-23T02:49:01.237Z,19.87
2018-11-23T02:52:05.164Z,21.40
2018-11-23T02:55:10.032Z,20.73
2018-11-23T02:58:14.000Z,20.27
2018-11-23T03:01:17.909Z,19.67
2018-11-23T03:04:21.816Z,21.40
2018-11-23T03:07:26.188Z,20.43
2018-11-23T03:10:30.501Z,20.53
2018-11-23T03:13:34.476Z,19.53
2018-11-23T03:16:38.783Z,18.70
2018-11-23T03:19:42.709Z,21.03
2018-11-23T03:22:46.964Z,19.00
2018-11-23T03:25:50.965Z,20.00
2018-11-23T03:28:55.316Z,23.20
2018-11-23T03:31:59.276Z,20.53
2018-11-23T03:35:03.308Z,20.23
2018-11-23T03:38:07.327Z,20.47
2018-11-23T03:41:11.309Z,19.77
2018-11-23T03:44:15.364Z,21.60
2018-11-23T03:47:19.343Z,19.70
2018-11-23T03:50:23.258Z,21.53
2018-11-23T03:53:27.161Z,20.90
2018-11-23T03:56:31.175Z,22.17
2018-11-23T03:59:35.191Z,19.93
2018-11-23T04:02:39.104Z,22.00
2018-11-23T04:05:43.050Z,18.83
2018-11-23T04:08:47.032Z,21.33
2018-11-23T04:11:50.972Z,25.20
2018-11-23T04:14:54.928Z,22.20
2018-11-23T04:17:58.874Z,20.43
2018-11-23T04:21:03.653Z,19.40
2018-11-23T04:24:07.627Z,19.57
2018-11-23T04:27:11.559Z,21.57
2018-11-23T04:30:16.724Z,20.70
2018-11-23T04:33:20.764Z,20.17
2018-11-23T04:36:24.714Z,20.20
2018-11-23T04:39:28.817Z,20.00
2018-11-23T04:42:32.724Z,21.90
2018-11-23T04:45:37.764Z,21.03
2018-11-23T04:48:41.768Z,19.50
2018-11-23T04:51:45.680Z,21.87
2018-11-23T04:54:50.040Z,20.97
2018-11-23T04:57:54.031Z,20.23
2018-11-23T05:00:57.967Z,20.37
2018-11-23T05:04:01.947Z,20.10
2018-11-23T05:07:05.863Z,19.50
2018-11-23T05:10:11.680Z,22.17
2018-11-23T05:13:15.631Z,21.10
2018-11-23T05:16:19.596Z,21.43
2018-11-23T05:19:24.071Z,21.87
2018-11-23T05:22:28.015Z,21.07
2018-11-23T05:25:31.995Z,19.83
2018-11-23T05:28:36.061Z,19.40
2018-11-23T05:31:40.017Z,19.10
2018-11-23T05:34:44.056Z,18.83
2018-11-23T05:37:48.051Z,20.43
2018-11-23T05:40:52.475Z,20.00
2018-11-23T05:43:56.499Z,20.37
2018-11-23T05:47:00.419Z,21.90
2018-11-23T05:50:04.835Z,20.00
2018-11-23T05:53:08.737Z,19.17
2018-11-23T05:56:12.757Z,21.47
2018-11-23T05:59:17.583Z,19.60
2018-11-23T06:02:21.603Z,20.27
2018-11-23T06:05:25.615Z,19.20
2018-11-23T06:08:29.740Z,19.67
2018-11-23T06:11:33.744Z,19.30
2018-11-23T06:14:37.684Z,19.57
2018-11-23T06:17:41.923Z,19.93
2018-11-23T06:20:45.919Z,21.60
2018-11-23T06:23:49.901Z,22.03
2018-11-23T06:26:53.915Z,20.70
2018-11-23T06:29:57.865Z,18.13
2018-11-23T06:33:12.815Z,18.27
2018-11-23T06:36:16.884Z,17.60
2018-11-23T06:39:20.829Z,18.77
2018-11-23T06:42:24.771Z,18.97
2018-11-23T06:45:29.187Z,17.90
2018-11-23T06:48:33.208Z,20.10
2018-11-23T06:51:37.706Z,19.37
2018-11-23T06:54:41.615Z,18.37
2018-11-23T06:57:45.579Z,17.50
2018-11-23T07:00:49.564Z,17.77
2018-11-23T07:03:53.588Z,20.33
2018-11-23T07:06:57.572Z,17.83
2018-11-23T07:10:01.528Z,18.33
2018-11-23T07:13:05.867Z,18.07
2018-11-23T07:16:09.855Z,16.40
2018-11-23T07:19:13.854Z,16.43
2018-11-23T07:22:17.841Z,16.80
2018-11-23T07:25:21.787Z,16.87
2018-11-23T07:28:25.767Z,21.07
2018-11-23T07:31:29.788Z,24.13
2018-11-23T07:34:33.801Z,22.00
2018-11-23T07:37:38.000Z,21.83
2018-11-23T07:40:53.523Z,23.17
2018-11-23T07:43:57.549Z,19.37
2018-11-23T07:47:01.535Z,21.30
2018-11-23T07:50:06.434Z,26.40
2018-11-23T07:53:10.835Z,23.10
2018-11-23T07:56:14.906Z,17.33
2018-11-23T07:59:18.848Z,18.40
2018-11-23T08:02:22.833Z,19.70
2018-11-23T08:05:26.776Z,19.30
2018-11-23T08:08:30.756Z,19.40
2018-11-23T08:11:34.704Z,18.80
2018-11-23T08:14:38.764Z,17.70
2018-11-23T08:17:42.711Z,19.33
2018-11-23T08:20:46.747Z,18.83
2018-11-23T08:23:51.060Z,19.00
2018-11-23T08:26:55.331Z,18.87
2018-11-23T08:29:59.269Z,19.20
2018-11-23T08:33:03.420Z,19.33
2018-11-23T08:36:07.400Z,18.90
2018-11-23T08:39:11.884Z,16.77
2018-11-23T08:42:15.839Z,24.50
2018-11-23T08:45:21.465Z,18.60
2018-11-23T08:48:25.400Z,17.70
2018-11-23T08:51:29.347Z,15.87
2018-11-23T08:54:33.325Z,16.93
2018-11-23T08:57:37.371Z,17.93
2018-11-23T09:00:41.358Z,17.80
2018-11-23T09:03:45.300Z,16.60
2018-11-23T09:06:49.576Z,16.53
2018-11-23T09:09:53.502Z,17.93
2018-11-23T09:12:59.783Z,15.33
2018-11-23T09:16:03.781Z,15.07
2018-11-23T09:19:07.812Z,15.67
2018-11-23T09:22:11.803Z,14.30
2018-11-23T09:25:17.267Z,15.37
2018-11-23T09:28:21.324Z,16.10
2018-11-23T09:31:25.319Z,15.55
2018-11-23T09:34:29.444Z,15.47
2018-11-23T09:37:33.420Z,17.05
2018-11-23T09:40:37.331Z,14.73
2018-11-23T09:43:41.236Z,14.75
2018-11-23T09:46:45.254Z,14.97
2018-11-23T09:49:49.167Z,14.87
2018-11-23T09:52:54.255Z,17.50
2018-11-23T09:55:58.439Z,14.75
2018-11-23T09:59:02.440Z,15.33
2018-11-23T10:02:06.457Z,14.40
2018-11-23T10:05:11.340Z,15.13
2018-11-23T10:08:15.300Z,14.18
2018-11-23T10:11:19.207Z,13.43
2018-11-23T10:14:23.123Z,14.60
2018-11-23T10:17:27.031Z,15.23
2018-11-23T10:20:32.233Z,14.43
2018-11-23T10:23:36.215Z,15.40
2018-11-23T10:26:40.210Z,15.00
2018-11-23T10:29:44.255Z,14.00
2018-11-23T10:32:49.140Z,14.90
2018-11-23T10:35:53.104Z,14.87
2018-11-23T10:38:57.025Z,13.03
2018-11-23T10:42:01.852Z,15.63
2018-11-23T10:45:08.134Z,14.95
2018-11-23T10:48:12.132Z,13.35
2018-11-23T10:51:16.048Z,13.93
2018-11-23T10:54:20.056Z,14.50
2018-11-23T10:57:23.971Z,14.13
2018-11-23T11:00:33.226Z,11.73
2018-11-23T11:03:41.279Z,14.27
2018-11-23T11:06:50.520Z,14.65
2018-11-23T11:09:54.471Z,14.80
2018-11-23T11:12:58.670Z,13.03
2018-11-23T11:16:02.639Z,13.33
2018-11-23T11:19:07.383Z,14.83
2018-11-23T11:22:11.371Z,15.43
2018-11-23T11:25:15.359Z,13.17
2018-11-23T11:28:19.304Z,14.40
2018-11-23T11:31:23.287Z,14.07
2018-11-23T11:34:27.328Z,12.70
2018-11-23T11:37:31.316Z,13.37
2018-11-23T11:40:35.269Z,14.87
2018-11-23T11:43:39.727Z,13.90
2018-11-23T11:46:43.663Z,13.97
2018-11-23T11:49:47.608Z,13.43
2018-11-23T11:52:51.589Z,14.43
2018-11-23T11:55:55.535Z,14.10
2018-11-23T11:58:59.517Z,14.60
2018-11-23T12:02:06.667Z,13.77
2018-11-23T12:05:09.023Z,14.93
2018-11-23T12:08:12.988Z,14.20
2018-11-23T12:11:16.935Z,13.47
2018-11-23T12:14:20.922Z,12.73
2018-11-23T12:17:24.859Z,13.07
2018-11-23T12:20:28.847Z,13.57
2018-11-23T12:23:32.787Z,13.40
2018-11-23T12:26:36.858Z,14.13
2018-11-23T12:29:40.784Z,12.90
2018-11-23T12:32:45.663Z,12.63
2018-11-23T12:35:49.652Z,12.47
2018-11-23T12:38:53.647Z,12.90
2018-11-23T12:41:57.664Z,14.18
2018-11-23T12:45:01.583Z,14.33
2018-11-23T12:48:05.487Z,13.10
2018-11-23T12:51:09.547Z,12.90
2018-11-23T12:54:13.517Z,13.30
2018-11-23T12:57:17.527Z,12.47
2018-11-23T13:00:24.972Z,13.10
2018-11-23T13:03:28.955Z,13.40
2018-11-23T13:06:32.844Z,14.90
2018-11-23T13:09:36.803Z,13.70
2018-11-23T13:12:40.772Z,14.43
2018-11-23T13:15:44.681Z,14.97
2018-11-23T13:18:48.601Z,15.37
2018-11-23T13:21:52.511Z,13.93
2018-11-23T13:24:56.443Z,12.93
2018-11-23T13:28:00.600Z,14.07
2018-11-23T13:31:04.712Z,14.73
2018-11-23T13:34:08.669Z,13.33
2018-11-23T13:37:13.420Z,15.32
2018-11-23T13:40:18.699Z,12.73
2018-11-23T13:43:22.759Z,14.93
2018-11-23T13:46:26.671Z,12.27
2018-11-23T13:49:30.584Z,13.10
2018-11-23T13:52:34.531Z,13.28
2018-11-23T13:55:38.615Z,14.47
2018-11-23T13:58:42.523Z,14.87
2018-11-23T14:01:46.431Z,15.40
2018-11-23T14:04:50.348Z,13.77
2018-11-23T14:07:55.536Z,14.40
2018-11-23T14:10:59.504Z,14.57
2018-11-23T14:14:03.416Z,13.63
2018-11-23T14:17:07.324Z,14.53
2018-11-23T14:20:12.623Z,14.47
2018-11-23T14:23:16.594Z,14.38
2018-11-23T14:26:20.499Z,13.83
2018-11-23T14:29:24.427Z,14.77
2018-11-23T14:32:28.421Z,13.72
2018-11-23T14:35:33.411Z,13.78
2018-11-23T14:38:37.375Z,16.50
2018-11-23T14:41:41.283Z,16.30
2018-11-23T14:44:45.200Z,14.27
2018-11-23T14:47:49.875Z,14.70
2018-11-23T14:50:54.504Z,14.63
2018-11-23T14:53:58.464Z,15.80
2018-11-23T14:57:02.822Z,14.73
2018-11-23T15:00:24.759Z,14.47
2018-11-23T15:03:28.748Z,16.07
2018-11-23T15:06:32.649Z,14.85
2018-11-23T15:09:36.565Z,15.48
2018-11-23T15:12:40.683Z,15.20
2018-11-23T15:15:44.588Z,13.90
2018-11-23T15:18:48.508Z,15.88
2018-11-23T15:21:52.415Z,16.70
2018-11-23T15:24:56.324Z,16.77
2018-11-23T15:28:00.232Z,14.03
2018-11-23T15:31:04.151Z,15.43
2018-11-23T15:34:08.196Z,15.97
2018-11-23T15:37:12.226Z,16.35
2018-11-23T15:40:18.811Z,16.00
2018-11-23T15:43:22.763Z,13.83
2018-11-23T15:46:27.091Z,15.90
2018-11-23T15:49:31.147Z,15.77
2018-11-23T15:52:35.121Z,17.83
2018-11-23T15:55:39.784Z,16.30
2018-11-23T15:58:43.765Z,18.47
2018-11-23T16:01:47.675Z,17.70
2018-11-23T16:04:51.583Z,17.83
2018-11-23T16:07:57.090Z,17.23
2018-11-23T16:11:01.048Z,17.80
2018-11-23T16:14:05.249Z,17.98
2018-11-23T16:17:09.208Z,16.65
2018-11-23T16:20:15.711Z,16.02
2018-11-23T16:23:20.840Z,17.40
2018-11-23T16:26:24.807Z,17.70
2018-11-23T16:29:28.796Z,18.02
2018-11-23T16:32:32.716Z,17.87
2018-11-23T16:35:37.700Z,19.57
2018-11-23T16:38:41.772Z,19.23
2018-11-23T16:41:45.676Z,18.00
2018-11-23T16:44:49.639Z,17.13
2018-11-23T16:47:54.477Z,18.07
2018-11-23T16:50:58.433Z,16.60
2018-11-23T16:54:02.478Z,17.45
2018-11-23T16:57:06.459Z,18.82
2018-11-23T17:00:13.744Z,18.20
2018-11-23T17:03:19.152Z,18.70
2018-11-23T17:06:23.143Z,18.05
2018-11-23T17:09:27.131Z,17.45
2018-11-23T17:12:31.095Z,18.37
2018-11-23T17:15:35.055Z,16.50
2018-11-23T17:18:39.075Z,17.07
2018-11-23T17:21:42.982Z,19.02
2018-11-23T17:24:46.916Z,17.70
2018-11-23T17:27:51.301Z,18.62
2018-11-23T17:30:55.249Z,19.07
2018-11-23T17:33:59.284Z,20.02
2018-11-23T17:37:03.388Z,19.35
2018-11-23T17:40:09.011Z,18.02
2018-11-23T17:43:12.927Z,17.87
2018-11-23T17:46:16.835Z,19.17
2018-11-23T17:49:21.004Z,18.57
2018-11-23T17:52:24.977Z,20.65
2018-11-23T17:55:29.019Z,18.73
2018-11-23T17:58:33.004Z,19.97
2018-11-23T18:01:36.988Z,19.77
2018-11-23T18:04:40.924Z,20.45
2018-11-23T18:07:44.967Z,19.23
2018-11-23T18:10:48.947Z,17.30
2018-11-23T18:13:52.863Z,19.17
2018-11-23T18:16:57.955Z,20.45
2018-11-23T18:20:01.921Z,19.75
2018-11-23T18:23:06.511Z,20.85
2018-11-23T18:26:10.456Z,19.93
2018-11-23T18:29:14.381Z,19.92
2018-11-23T18:32:18.384Z,19.90
2018-11-23T18:35:22.400Z,20.57
2018-11-23T18:38:26.307Z,19.42
2018-11-23T18:41:30.220Z,21.23
2018-11-23T18:44:34.133Z,19.32
2018-11-23T18:47:38.179Z,19.27
2018-11-23T18:50:42.160Z,19.55
2018-11-23T18:53:46.083Z,22.62
2018-11-23T18:56:50.099Z,18.53
2018-11-23T18:59:53.995Z,19.95
2018-11-23T19:02:58.002Z,20.30
2018-11-23T19:06:02.047Z,19.53
2018-11-23T19:09:09.224Z,19.17
2018-11-23T19:12:13.231Z,19.70
2018-11-23T19:15:25.307Z,19.37
2018-11-23T19:18:22.424Z,19.10
2018-11-23T19:21:26.402Z,19.87
2018-11-23T19:24:30.337Z,21.07
2018-11-23T19:27:34.631Z,19.97
2018-11-23T19:30:38.572Z,20.60
2018-11-23T19:33:42.561Z,20.55
2018-11-23T19:36:46.474Z,21.33
2018-11-23T19:39:50.631Z,19.07
2018-11-23T19:42:54.603Z,18.70
2018-11-23T19:45:58.594Z,20.72
2018-11-23T19:49:02.532Z,20.23
2018-11-23T19:52:06.476Z,19.48
2018-11-23T19:55:11.244Z,20.90
2018-11-23T19:58:15.216Z,21.00
2018-11-23T20:01:19.200Z,18.60
2018-11-23T20:04:23.143Z,20.43
2018-11-23T20:07:27.127Z,19.52
2018-11-23T20:10:31.040Z,20.43
2018-11-23T20:13:35.018Z,21.82
2018-11-23T20:16:39.581Z,19.73
2018-11-23T20:19:43.529Z,20.37
2018-11-23T20:22:48.279Z,19.90
2018-11-23T20:25:52.268Z,20.85
2018-11-23T20:28:56.251Z,20.12
2018-11-23T20:32:00.997Z,20.27
2018-11-23T20:35:05.880Z,20.62
2018-11-23T20:38:09.828Z,19.82
2018-11-23T20:41:13.867Z,21.12
2018-11-23T20:44:17.858Z,18.52
2018-11-23T20:47:21.835Z,17.30
2018-11-23T20:50:25.779Z,20.08
2018-11-23T20:53:30.092Z,19.60
2018-11-23T20:56:34.039Z,18.73
2018-11-23T20:59:38.965Z,19.55
2018-11-23T21:02:42.156Z,20.20
2018-11-23T21:05:46.200Z,18.70
2018-11-23T21:08:50.191Z,17.60
2018-11-23T21:11:54.219Z,19.00
2018-11-23T21:14:58.208Z,17.98
2018-11-23T21:18:03.138Z,19.98
2018-11-23T21:21:07.148Z,18.17
2018-11-23T21:24:11.102Z,19.62
2018-11-23T21:27:15.114Z,20.07
2018-11-23T21:30:22.063Z,20.30
2018-11-23T21:33:26.084Z,19.10
2018-11-23T21:36:30.097Z,19.53
2018-11-23T21:39:34.107Z,19.12
2018-11-23T21:42:38.499Z,19.25
2018-11-23T21:45:42.447Z,19.17
2018-11-23T21:48:46.387Z,18.93
2018-11-23T21:51:50.368Z,19.70
2018-11-23T21:54:54.311Z,20.47
2018-11-23T21:57:58.563Z,20.03
2018-11-23T22:01:02.548Z,17.27
2018-11-23T22:04:06.742Z,19.85
2018-11-23T22:07:10.692Z,19.60
2018-11-23T22:10:17.425Z,17.98
2018-11-23T22:13:21.349Z,18.00
2018-11-23T22:16:25.247Z,18.30
2018-11-23T22:19:29.167Z,19.40
2018-11-23T22:22:33.075Z,19.23
2018-11-23T22:25:37.040Z,17.75
2018-11-23T22:28:40.715Z,20.73
2018-11-23T22:31:44.651Z,18.50
2018-11-23T22:34:49.383Z,20.35
2018-11-23T22:37:53.288Z,20.50
2018-11-23T22:40:57.204Z,20.03
2018-11-23T22:44:01.112Z,20.60
2018-11-23T22:47:05.028Z,20.47
2018-11-23T22:50:12.208Z,20.03
2018-11-23T22:53:16.128Z,18.03
2018-11-23T22:56:20.139Z,20.12
2018-11-23T22:59:24.056Z,18.83
2018-11-23T23:02:28.096Z,18.43
2018-11-23T23:05:32.192Z,19.67
2018-11-23T23:08:36.094Z,20.43
2018-11-23T23:11:40.016Z,17.73
2018-11-23T23:14:43.924Z,20.27
2018-11-23T23:17:47.933Z,19.70
2018-11-23T23:20:51.911Z,19.07
2018-11-23T23:23:55.864Z,21.17
2018-11-23T23:26:59.779Z,20.37
2018-11-23T23:30:03.996Z,19.67
2018-11-23T23:33:07.908Z,21.23
2018-11-23T23:36:11.823Z,21.23
2018-11-23T23:39:15.727Z,18.37
2018-11-23T23:42:19.708Z,19.93
2018-11-23T23:45:24.024Z,19.50
2018-11-23T23:48:27.859Z,23.00
2018-11-23T23:51:31.788Z,21.10
2018-11-23T23:54:35.701Z,21.27
2018-11-23T23:57:40.379Z,23.43
